Girard, Ohio
Current Conditions -  °F | °C
As of 10:51 AM on Sunday 21 Dec 2014 (Local Time) from KYNG Reporting Station
Overcast Overcast  
Wind Chill: 25°   Ceiling: 2100
Heat Index: 30°   Visibility: 10mi
Dew Point: 21°   Wind: 5mph
Humidity: 69%   Direction: 210°SSW
Pressure: 30.3"   Gusts: NA
Location:  41.15°N, 80.7°W
Report Text: KYNG 211551Z 21004KT 10SM OVC021 M01/M06 A3030 RMK AO2 SLP276 T10111061
Loading
Personal Weather Stations






























Interactive Weather Map New forecast layout! Learn more

10-Day Weather Forecast

Advertisements
Track Severe Weather on mobile